createdAt,value
2019-03-27T00:01:48.816Z,5.01
2019-03-27T00:04:20.043Z,5.03
2019-03-27T00:06:51.101Z,5.02
2019-03-27T00:09:22.153Z,5.03
2019-03-27T00:11:53.185Z,5.02
2019-03-27T00:14:24.251Z,5.01
2019-03-27T00:16:55.482Z,5.00
2019-03-27T00:19:26.525Z,5.03
2019-03-27T00:21:58.076Z,5.05
2019-03-27T00:24:29.035Z,5.08
2019-03-27T00:26:59.973Z,5.09
2019-03-27T00:29:30.949Z,5.10
2019-03-27T00:32:01.999Z,5.13
2019-03-27T00:34:33.033Z,5.12
2019-03-27T00:37:04.109Z,5.14
2019-03-27T00:39:35.154Z,5.17
2019-03-27T00:42:06.251Z,5.19
2019-03-27T00:44:37.262Z,5.20
2019-03-27T00:47:08.267Z,5.23
2019-03-27T00:49:39.292Z,5.25
2019-03-27T00:52:10.249Z,5.18
2019-03-27T00:54:41.226Z,5.16
2019-03-27T00:57:12.363Z,5.09
2019-03-27T00:59:43.385Z,5.10
2019-03-27T01:02:14.495Z,5.13
2019-03-27T01:04:45.515Z,5.12
2019-03-27T01:07:16.557Z,5.09
2019-03-27T01:09:47.523Z,5.08
2019-03-27T01:12:18.543Z,5.06
2019-03-27T01:14:49.602Z,5.03
2019-03-27T01:17:20.764Z,5.03
2019-03-27T01:19:51.915Z,5.03
2019-03-27T01:22:22.933Z,4.96
2019-03-27T01:24:53.988Z,4.92
2019-03-27T01:27:24.999Z,4.92
2019-03-27T01:29:55.980Z,4.90
2019-03-27T01:32:27.021Z,4.89
2019-03-27T01:34:58.043Z,4.94
2019-03-27T01:37:29.020Z,4.95
2019-03-27T01:40:00.375Z,4.98
2019-03-27T01:42:31.349Z,4.99
2019-03-27T01:45:02.434Z,4.98
2019-03-27T01:47:33.541Z,5.00
2019-03-27T01:50:07.339Z,5.02
2019-03-27T01:52:38.411Z,4.98
2019-03-27T01:55:10.036Z,4.96
2019-03-27T01:57:41.003Z,4.96
2019-03-27T02:00:12.430Z,4.95
2019-03-27T02:02:43.462Z,5.02
2019-03-27T02:05:14.609Z,5.09
2019-03-27T02:07:45.580Z,5.13
2019-03-27T02:10:16.919Z,5.11
2019-03-27T02:12:47.870Z,5.15
2019-03-27T02:15:18.970Z,5.19
2019-03-27T02:17:49.859Z,5.21
2019-03-27T02:20:20.806Z,5.18
2019-03-27T02:22:51.747Z,5.17
2019-03-27T02:25:22.700Z,5.19
2019-03-27T02:27:53.605Z,5.18
2019-03-27T02:30:24.591Z,5.14
2019-03-27T02:32:55.540Z,5.11
2019-03-27T02:35:26.554Z,5.10
2019-03-27T02:37:57.551Z,5.11
2019-03-27T02:40:28.513Z,5.14
2019-03-27T02:42:59.478Z,5.16
2019-03-27T02:45:31.775Z,5.15
2019-03-27T02:48:02.813Z,5.13
2019-03-27T02:50:33.710Z,5.16
2019-03-27T02:53:04.857Z,5.14
2019-03-27T02:55:35.980Z,5.17
2019-03-27T02:58:06.882Z,5.19
2019-03-27T03:00:37.896Z,5.18
2019-03-27T03:03:08.859Z,5.18
2019-03-27T03:05:39.951Z,5.22
2019-03-27T03:08:10.910Z,5.21
2019-03-27T03:10:45.701Z,5.21
2019-03-27T03:13:14.531Z,5.21
2019-03-27T03:15:45.452Z,5.19
2019-03-27T03:18:16.397Z,5.19
2019-03-27T03:20:47.427Z,5.28
2019-03-27T03:23:18.433Z,5.18
2019-03-27T03:25:49.410Z,5.16
2019-03-27T03:28:20.370Z,5.14
2019-03-27T03:30:51.418Z,5.13
2019-03-27T03:33:22.516Z,5.11
2019-03-27T03:35:53.593Z,5.12
2019-03-27T03:38:24.512Z,5.11
2019-03-27T03:40:55.699Z,5.10
2019-03-27T03:43:26.912Z,5.08
2019-03-27T03:45:57.963Z,5.08
2019-03-27T03:48:29.105Z,5.08
2019-03-27T03:51:01.624Z,5.08
2019-03-27T03:53:33.252Z,5.08
2019-03-27T03:56:04.750Z,5.09
2019-03-27T03:58:37.937Z,5.09
2019-03-27T04:01:10.233Z,5.09
2019-03-27T04:03:43.205Z,5.08
2019-03-27T04:06:14.352Z,5.08
2019-03-27T04:08:45.230Z,5.09
2019-03-27T04:11:16.405Z,5.09
2019-03-27T04:13:47.347Z,5.11
2019-03-27T04:16:18.253Z,5.10
2019-03-27T04:18:49.285Z,5.09
2019-03-27T04:21:20.218Z,5.10
2019-03-27T04:23:51.109Z,5.13
2019-03-27T04:26:22.071Z,5.14
2019-03-27T04:28:53.065Z,5.15
2019-03-27T04:31:23.981Z,5.18
2019-03-27T04:33:54.954Z,5.22
2019-03-27T04:36:25.881Z,5.24
2019-03-27T04:38:56.766Z,5.19
2019-03-27T04:41:27.675Z,5.21
2019-03-27T04:43:58.692Z,5.25
2019-03-27T04:46:29.623Z,5.19
2019-03-27T04:49:00.679Z,5.19
2019-03-27T04:51:31.715Z,5.20
2019-03-27T04:54:02.705Z,5.23
2019-03-27T04:56:33.660Z,5.23
2019-03-27T04:59:04.847Z,5.20
2019-03-27T05:01:35.802Z,5.21
2019-03-27T05:04:07.931Z,5.22
2019-03-27T05:06:38.911Z,5.19
2019-03-27T05:09:10.489Z,5.17
2019-03-27T05:11:41.572Z,5.17
2019-03-27T05:14:12.496Z,5.16
2019-03-27T05:16:43.851Z,5.17
2019-03-27T05:19:15.042Z,5.16
2019-03-27T05:21:45.910Z,5.17
2019-03-27T05:24:16.959Z,5.18
2019-03-27T05:26:47.827Z,5.20
2019-03-27T05:29:18.790Z,5.19
2019-03-27T05:31:49.834Z,5.21
2019-03-27T05:34:21.238Z,5.21
2019-03-27T05:36:57.467Z,5.27
2019-03-27T05:39:30.033Z,5.29
2019-03-27T05:42:00.916Z,5.30
2019-03-27T05:44:31.823Z,5.35
2019-03-27T05:47:04.928Z,5.40
2019-03-27T05:49:36.061Z,5.44
2019-03-27T05:52:07.064Z,5.47
2019-03-27T05:54:38.279Z,5.51
2019-03-27T05:57:09.433Z,5.55
2019-03-27T05:59:44.145Z,5.62
2019-03-27T06:02:15.359Z,5.65
2019-03-27T06:04:46.301Z,5.74
2019-03-27T06:07:19.346Z,5.81
2019-03-27T06:09:50.279Z,5.93
2019-03-27T06:12:21.253Z,5.95
2019-03-27T06:14:53.868Z,6.01
2019-03-27T06:17:28.127Z,6.07
2019-03-27T06:19:59.206Z,6.15
2019-03-27T06:22:30.240Z,6.30
2019-03-27T06:25:01.281Z,6.44
2019-03-27T06:27:32.274Z,6.48
2019-03-27T06:30:03.841Z,6.62
2019-03-27T06:32:35.974Z,6.70
2019-03-27T06:35:08.544Z,6.78
2019-03-27T06:37:39.623Z,6.79
2019-03-27T06:40:10.974Z,6.80
2019-03-27T06:42:42.138Z,7.00
2019-03-27T06:45:13.175Z,7.06
2019-03-27T06:47:44.255Z,7.13
2019-03-27T06:50:16.312Z,7.21
2019-03-27T06:52:47.636Z,7.42
2019-03-27T06:55:18.966Z,7.48
2019-03-27T06:57:50.004Z,7.49
2019-03-27T07:00:24.115Z,7.56
2019-03-27T07:02:55.256Z,7.56
2019-03-27T07:05:26.433Z,7.62
2019-03-27T07:07:57.666Z,7.71
2019-03-27T07:10:28.684Z,7.78
2019-03-27T07:12:59.692Z,7.93
2019-03-27T07:15:31.082Z,8.12
2019-03-27T07:18:02.058Z,8.41
2019-03-27T07:20:33.108Z,8.43
2019-03-27T07:23:04.606Z,8.60
2019-03-27T07:25:36.524Z,9.08
2019-03-27T07:28:07.619Z,9.48
2019-03-27T07:30:38.600Z,9.63
2019-03-27T07:33:09.833Z,9.46
2019-03-27T07:35:40.869Z,9.35
2019-03-27T07:38:11.832Z,9.24
2019-03-27T07:40:43.132Z,9.16
2019-03-27T07:43:14.084Z,9.06
2019-03-27T07:45:45.156Z,9.04
2019-03-27T07:48:16.046Z,9.26
2019-03-27T07:50:47.043Z,9.25
2019-03-27T07:53:17.958Z,9.27
2019-03-27T07:55:48.940Z,9.22
2019-03-27T07:58:20.026Z,9.18
2019-03-27T08:00:50.900Z,9.31
2019-03-27T08:03:21.924Z,9.51
2019-03-27T08:05:53.058Z,9.35
2019-03-27T08:08:24.277Z,9.26
2019-03-27T08:10:55.374Z,9.54
2019-03-27T08:13:26.514Z,10.10
2019-03-27T08:15:57.542Z,10.58
2019-03-27T08:18:28.562Z,10.95
2019-03-27T08:20:59.585Z,11.48
2019-03-27T08:23:30.736Z,11.70
2019-03-27T08:26:01.731Z,11.81
2019-03-27T08:28:32.606Z,11.89
2019-03-27T08:31:03.679Z,11.87
2019-03-27T08:33:34.586Z,12.19
2019-03-27T08:36:05.576Z,12.57
2019-03-27T08:38:36.683Z,13.09
2019-03-27T08:41:07.629Z,13.21
2019-03-27T08:43:38.556Z,13.59
2019-03-27T08:46:09.588Z,13.81
2019-03-27T08:48:40.522Z,14.21
2019-03-27T08:51:11.468Z,14.66
2019-03-27T08:53:42.421Z,14.34
2019-03-27T08:56:13.517Z,13.97
2019-03-27T08:58:44.726Z,14.34
2019-03-27T09:01:15.729Z,14.68
2019-03-27T09:03:46.904Z,15.21
2019-03-27T09:06:17.866Z,15.83
2019-03-27T09:08:48.897Z,15.95
2019-03-27T09:11:20.387Z,15.64
2019-03-27T09:13:51.371Z,15.61
2019-03-27T09:16:22.429Z,14.94
2019-03-27T09:18:53.493Z,14.57
2019-03-27T09:21:24.543Z,14.94
2019-03-27T09:23:55.430Z,15.17
2019-03-27T09:26:26.645Z,14.68
2019-03-27T09:28:57.509Z,14.54
2019-03-27T09:31:28.493Z,14.56
2019-03-27T09:33:59.503Z,14.73
2019-03-27T09:36:30.531Z,15.36
2019-03-27T09:39:01.493Z,16.01
2019-03-27T09:41:32.614Z,16.59
2019-03-27T09:44:04.316Z,16.73
2019-03-27T09:46:35.307Z,16.70
2019-03-27T09:49:06.196Z,16.70
2019-03-27T09:51:37.183Z,16.56
2019-03-27T09:54:08.247Z,16.59
2019-03-27T09:56:41.945Z,15.62
2019-03-27T09:59:14.526Z,16.00
2019-03-27T10:01:45.598Z,17.05
2019-03-27T10:04:16.566Z,18.02
2019-03-27T10:06:47.441Z,19.09
2019-03-27T10:09:18.418Z,19.33
2019-03-27T10:11:49.337Z,18.54
2019-03-27T10:14:37.711Z,18.30
2019-03-27T10:17:08.797Z,17.80
2019-03-27T10:19:39.977Z,16.29
2019-03-27T10:22:10.886Z,15.58
2019-03-27T10:24:41.820Z,15.69
2019-03-27T10:27:12.859Z,16.08
2019-03-27T10:29:43.764Z,16.88
2019-03-27T10:32:14.698Z,16.88
2019-03-27T10:34:47.169Z,16.01
2019-03-27T10:37:26.660Z,15.75
2019-03-27T10:39:57.562Z,15.40
2019-03-27T10:42:29.329Z,15.27
2019-03-27T10:45:00.398Z,14.89
2019-03-27T10:47:31.299Z,15.34
2019-03-27T10:50:02.334Z,14.95
2019-03-27T10:52:33.292Z,14.73
2019-03-27T10:55:05.302Z,14.49
2019-03-27T10:57:36.210Z,13.71
2019-03-27T11:00:11.114Z,14.04
2019-03-27T11:02:42.232Z,13.83
2019-03-27T11:05:13.405Z,13.81
2019-03-27T11:07:44.830Z,13.86
2019-03-27T11:10:16.098Z,13.50
2019-03-27T11:12:47.117Z,13.45
2019-03-27T11:15:18.598Z,13.11
2019-03-27T11:17:49.615Z,13.33
2019-03-27T11:20:30.775Z,13.33
2019-03-27T11:22:53.602Z,13.27
2019-03-27T11:25:24.573Z,13.61
2019-03-27T11:27:55.542Z,13.82
2019-03-27T11:30:37.948Z,13.77
2019-03-27T11:33:09.397Z,13.68
2019-03-27T11:35:40.630Z,13.86
2019-03-27T11:38:11.675Z,14.07
2019-03-27T11:40:42.702Z,13.99
2019-03-27T11:43:13.744Z,14.12
2019-03-27T11:45:44.781Z,13.88
2019-03-27T11:48:15.984Z,13.62
2019-03-27T11:50:46.999Z,13.67
2019-03-27T11:53:18.000Z,14.08
2019-03-27T11:55:49.100Z,13.86
2019-03-27T11:58:20.664Z,14.16
2019-03-27T12:00:54.857Z,14.19
2019-03-27T12:03:24.282Z,14.33
2019-03-27T12:05:55.672Z,14.09
2019-03-27T12:08:26.758Z,14.09
2019-03-27T12:10:57.708Z,13.55
2019-03-27T12:13:28.748Z,13.15
2019-03-27T12:15:59.704Z,13.24
2019-03-27T12:18:32.162Z,13.33
2019-03-27T12:21:03.454Z,13.41
2019-03-27T12:23:35.258Z,13.49
2019-03-27T12:26:07.970Z,13.64
2019-03-27T12:28:44.629Z,14.01
2019-03-27T12:31:23.650Z,14.18
2019-03-27T12:33:55.180Z,14.19
2019-03-27T12:36:26.181Z,13.97
2019-03-27T12:38:57.184Z,14.16
2019-03-27T12:41:28.264Z,14.37
2019-03-27T12:44:02.430Z,14.54
2019-03-27T12:46:32.146Z,14.44
2019-03-27T12:49:03.278Z,13.49
2019-03-27T12:51:34.464Z,13.28
2019-03-27T12:54:06.604Z,13.10
2019-03-27T12:56:37.987Z,13.38
2019-03-27T12:59:09.022Z,13.46
2019-03-27T13:01:40.041Z,13.47
2019-03-27T13:04:12.862Z,13.74
2019-03-27T13:06:44.097Z,14.04
2019-03-27T13:09:15.723Z,14.21
2019-03-27T13:11:46.826Z,14.50
2019-03-27T13:14:18.010Z,15.04
2019-03-27T13:16:52.266Z,15.24
2019-03-27T13:19:25.037Z,15.69
2019-03-27T13:21:56.288Z,15.49
2019-03-27T13:24:30.877Z,15.08
2019-03-27T13:27:03.950Z,15.34
2019-03-27T13:29:35.243Z,14.78
2019-03-27T13:32:06.307Z,14.57
2019-03-27T13:34:37.371Z,14.32
2019-03-27T13:37:08.358Z,14.85
2019-03-27T13:39:41.028Z,15.26
2019-03-27T13:42:12.301Z,15.36
2019-03-27T13:44:43.591Z,15.53
2019-03-27T13:47:14.535Z,15.39
2019-03-27T13:49:45.667Z,14.68
2019-03-27T13:52:16.614Z,15.37
2019-03-27T13:54:47.592Z,16.14
2019-03-27T13:57:18.606Z,16.41
2019-03-27T13:59:49.675Z,16.59
2019-03-27T14:02:20.746Z,16.64
2019-03-27T14:04:52.064Z,16.99
2019-03-27T14:07:23.179Z,17.28
2019-03-27T14:09:54.144Z,16.78
2019-03-27T14:12:25.219Z,16.94
2019-03-27T14:14:57.760Z,16.83
2019-03-27T14:17:28.886Z,16.84
2019-03-27T14:20:02.838Z,16.97
2019-03-27T14:22:33.861Z,17.57
2019-03-27T14:25:07.730Z,17.40
2019-03-27T14:27:38.872Z,16.59
2019-03-27T14:30:12.625Z,15.95
2019-03-27T14:32:43.604Z,15.77
2019-03-27T14:35:14.649Z,15.13
2019-03-27T14:37:45.668Z,14.38
2019-03-27T14:40:16.877Z,13.51
2019-03-27T14:42:47.929Z,12.98
2019-03-27T14:45:18.943Z,13.10
2019-03-27T14:47:49.995Z,13.38
2019-03-27T14:50:20.897Z,13.23
2019-03-27T14:52:51.969Z,12.98
2019-03-27T14:55:22.941Z,13.06
2019-03-27T14:57:54.085Z,12.87
2019-03-27T15:00:25.270Z,12.70
2019-03-27T15:02:56.341Z,12.53
2019-03-27T15:05:27.561Z,12.33
2019-03-27T15:07:58.761Z,12.17
2019-03-27T15:10:29.605Z,11.97
2019-03-27T15:13:00.664Z,12.08
2019-03-27T15:15:31.621Z,12.32
2019-03-27T15:18:02.575Z,12.22
2019-03-27T15:20:33.579Z,11.98
2019-03-27T15:23:04.642Z,12.08
2019-03-27T15:25:35.668Z,12.25
2019-03-27T15:28:06.822Z,12.29
2019-03-27T15:30:37.791Z,12.60
2019-03-27T15:33:08.954Z,13.85
2019-03-27T15:35:39.848Z,15.08
2019-03-27T15:38:10.877Z,16.16
2019-03-27T15:40:44.390Z,17.14
2019-03-27T15:43:15.430Z,17.86
2019-03-27T15:45:46.540Z,17.58
2019-03-27T15:48:17.614Z,16.93
2019-03-27T15:50:55.516Z,15.60
2019-03-27T15:53:21.264Z,15.00
2019-03-27T15:55:52.446Z,14.54
2019-03-27T15:58:23.541Z,14.11
2019-03-27T16:00:54.570Z,14.28
2019-03-27T16:03:27.152Z,14.13
2019-03-27T16:05:58.918Z,13.58
2019-03-27T16:08:30.710Z,13.65
2019-03-27T16:11:01.692Z,13.71
2019-03-27T16:13:32.796Z,13.93
2019-03-27T16:16:03.961Z,14.00
2019-03-27T16:18:35.117Z,13.99
2019-03-27T16:21:06.466Z,14.22
2019-03-27T16:23:37.714Z,13.73
2019-03-27T16:26:09.012Z,13.77
2019-03-27T16:28:40.756Z,13.16
2019-03-27T16:31:12.242Z,12.68
2019-03-27T16:33:43.366Z,12.01
2019-03-27T16:36:14.628Z,11.80
2019-03-27T16:38:46.326Z,11.59
2019-03-27T16:41:17.496Z,11.51
2019-03-27T16:43:48.854Z,11.40
2019-03-27T16:46:19.952Z,11.37
2019-03-27T16:48:51.104Z,11.29
2019-03-27T16:51:22.138Z,11.26
2019-03-27T16:53:53.233Z,11.12
2019-03-27T16:56:25.534Z,11.08
2019-03-27T16:58:57.266Z,10.93
2019-03-27T17:01:28.875Z,10.85
2019-03-27T17:04:00.344Z,10.89
2019-03-27T17:06:31.536Z,10.83
2019-03-27T17:09:02.861Z,10.68
2019-03-27T17:11:34.030Z,10.57
2019-03-27T17:14:05.148Z,10.54
2019-03-27T17:16:36.296Z,10.49
2019-03-27T17:19:07.355Z,10.33
2019-03-27T17:21:38.371Z,10.29
2019-03-27T17:24:09.575Z,10.20
2019-03-27T17:26:40.822Z,10.17
2019-03-27T17:29:39.160Z,10.09
2019-03-27T17:32:17.661Z,10.06
2019-03-27T17:34:51.816Z,9.94
2019-03-27T17:37:21.458Z,9.86
2019-03-27T17:39:52.504Z,9.76
2019-03-27T17:42:23.684Z,9.65
2019-03-27T17:44:54.721Z,9.59
2019-03-27T17:47:25.806Z,9.53
2019-03-27T17:49:57.525Z,9.46
2019-03-27T17:52:28.671Z,9.42
2019-03-27T17:54:59.909Z,9.36
2019-03-27T17:57:30.885Z,9.27
2019-03-27T18:00:02.155Z,9.24
2019-03-27T18:02:33.171Z,9.24
2019-03-27T18:05:05.914Z,9.20
2019-03-27T18:07:36.957Z,9.17
2019-03-27T18:10:08.377Z,9.13
2019-03-27T18:12:39.393Z,9.10
2019-03-27T18:15:10.708Z,9.09
2019-03-27T18:17:41.892Z,9.07
2019-03-27T18:20:12.960Z,9.14
2019-03-27T18:22:43.993Z,9.07
2019-03-27T18:25:15.217Z,9.06
2019-03-27T18:27:46.112Z,9.05
2019-03-27T18:30:17.261Z,9.04
2019-03-27T18:32:48.239Z,9.02
2019-03-27T18:35:19.280Z,9.00
2019-03-27T18:37:50.435Z,8.98
2019-03-27T18:40:21.469Z,8.92
2019-03-27T18:42:52.601Z,8.89
2019-03-27T18:45:23.640Z,8.88
2019-03-27T18:47:54.608Z,8.87
2019-03-27T18:50:25.620Z,8.87
2019-03-27T18:52:56.765Z,8.85
2019-03-27T18:55:27.937Z,8.82
2019-03-27T18:58:00.604Z,8.83
2019-03-27T19:00:32.031Z,8.83
2019-03-27T19:03:03.323Z,8.83
2019-03-27T19:05:34.217Z,8.83
2019-03-27T19:08:05.322Z,8.82
2019-03-27T19:10:36.392Z,8.84
2019-03-27T19:13:07.688Z,8.84
2019-03-27T19:15:38.793Z,8.78
2019-03-27T19:18:10.148Z,8.75
2019-03-27T19:20:41.161Z,8.70
2019-03-27T19:23:12.234Z,8.67
2019-03-27T19:25:43.255Z,8.61
2019-03-27T19:28:14.275Z,8.60
2019-03-27T19:30:45.311Z,8.60
2019-03-27T19:33:16.342Z,8.57
2019-03-27T19:35:47.515Z,8.55
2019-03-27T19:38:18.467Z,8.56
2019-03-27T19:40:49.430Z,8.57
2019-03-27T19:43:20.372Z,8.59
2019-03-27T19:46:01.288Z,8.61
2019-03-27T19:48:35.972Z,8.60
2019-03-27T19:51:07.052Z,8.60
2019-03-27T19:53:38.040Z,8.61
2019-03-27T19:56:09.049Z,8.61
2019-03-27T19:58:40.085Z,8.57
2019-03-27T20:01:11.111Z,8.53
2019-03-27T20:03:42.078Z,8.55
2019-03-27T20:06:13.250Z,8.53
2019-03-27T20:08:44.462Z,8.50
2019-03-27T20:11:18.055Z,8.49
2019-03-27T20:13:49.560Z,8.48
2019-03-27T20:16:20.653Z,8.49
2019-03-27T20:18:51.848Z,8.50
2019-03-27T20:21:23.110Z,8.49
2019-03-27T20:23:54.050Z,8.49
2019-03-27T20:26:25.566Z,8.46
2019-03-27T20:28:56.562Z,8.44
2019-03-27T20:31:27.524Z,8.37
2019-03-27T20:33:58.538Z,8.29
2019-03-27T20:36:30.186Z,8.19
2019-03-27T20:39:04.599Z,8.12
2019-03-27T20:41:35.699Z,8.13
2019-03-27T20:44:07.026Z,8.03
2019-03-27T20:46:38.115Z,7.98
2019-03-27T20:49:09.575Z,7.90
2019-03-27T20:51:40.453Z,7.87
2019-03-27T20:54:11.502Z,7.86
2019-03-27T20:56:42.627Z,7.92
2019-03-27T20:59:13.643Z,7.91
2019-03-27T21:01:44.705Z,7.91
2019-03-27T21:04:15.717Z,7.87
2019-03-27T21:06:48.426Z,7.88
2019-03-27T21:09:19.389Z,7.85
2019-03-27T21:11:50.402Z,7.83
2019-03-27T21:14:21.682Z,7.82
2019-03-27T21:16:52.740Z,7.79
2019-03-27T21:19:23.969Z,7.79
2019-03-27T21:21:55.444Z,7.74
2019-03-27T21:24:26.537Z,7.71
2019-03-27T21:26:57.501Z,7.69
2019-03-27T21:29:28.615Z,7.67
2019-03-27T21:31:59.667Z,7.68
2019-03-27T21:34:30.910Z,7.66
2019-03-27T21:37:01.953Z,7.65
2019-03-27T21:39:32.893Z,7.64
2019-03-27T21:42:04.091Z,7.65
2019-03-27T21:44:34.974Z,7.65
2019-03-27T21:47:05.930Z,7.65
2019-03-27T21:49:36.901Z,7.65
2019-03-27T21:52:07.893Z,7.64
2019-03-27T21:54:39.002Z,7.62
2019-03-27T21:57:10.143Z,7.64
2019-03-27T21:59:41.301Z,7.74
2019-03-27T22:02:12.267Z,7.79
2019-03-27T22:04:43.372Z,7.70
2019-03-27T22:07:14.379Z,7.62
2019-03-27T22:09:45.427Z,7.58
2019-03-27T22:12:16.614Z,7.55
2019-03-27T22:14:47.613Z,7.49
2019-03-27T22:17:18.619Z,7.44
2019-03-27T22:19:49.585Z,7.37
2019-03-27T22:22:20.939Z,7.36
2019-03-27T22:24:51.919Z,7.35
2019-03-27T22:27:22.773Z,7.34
2019-03-27T22:29:53.819Z,7.34
2019-03-27T22:32:24.907Z,7.34
2019-03-27T22:34:55.781Z,7.33
2019-03-27T22:37:41.027Z,7.32
2019-03-27T22:40:12.375Z,7.32
2019-03-27T22:42:43.354Z,7.28
2019-03-27T22:45:14.590Z,7.26
2019-03-27T22:47:45.503Z,7.27
2019-03-27T22:50:16.636Z,7.28
2019-03-27T22:52:49.616Z,7.26
2019-03-27T22:55:20.659Z,7.24
2019-03-27T22:57:51.952Z,7.22
2019-03-27T23:00:25.293Z,7.21
2019-03-27T23:02:57.999Z,7.18
2019-03-27T23:05:30.313Z,7.18
2019-03-27T23:08:01.500Z,7.14
2019-03-27T23:10:32.639Z,7.12
2019-03-27T23:13:03.826Z,7.09
2019-03-27T23:15:35.463Z,7.08
2019-03-27T23:18:06.537Z,7.04
2019-03-27T23:20:37.520Z,7.03
2019-03-27T23:23:08.485Z,6.98
2019-03-27T23:25:39.543Z,6.97
2019-03-27T23:28:10.522Z,6.93
2019-03-27T23:30:41.601Z,6.89
2019-03-27T23:33:12.636Z,6.80
2019-03-27T23:35:44.216Z,6.77
2019-03-27T23:38:15.588Z,6.73
2019-03-27T23:40:46.631Z,6.72
2019-03-27T23:43:17.632Z,6.69
2019-03-27T23:45:48.672Z,6.71
2019-03-27T23:48:19.564Z,6.74
2019-03-27T23:50:50.592Z,6.74
2019-03-27T23:53:21.632Z,6.75
2019-03-27T23:55:52.747Z,6.77
2019-03-27T23:58:23.722Z,6.77
